sensor_id;sensor_type;location;lat;lon;timestamp;temperature;humidity
14531;DHT22;7352;50.866;4.366;2023-06-22T00:01:29;24.00;99.90
14531;DHT22;7352;50.866;4.366;2023-06-22T00:03:56;23.80;99.90
14531;DHT22;7352;50.866;4.366;2023-06-22T00:06:22;23.90;99.90
14531;DHT22;7352;50.866;4.366;2023-06-22T00:08:49;23.90;99.90
14531;DHT22;7352;50.866;4.366;2023-06-22T00:11:18;23.90;99.90
14531;DHT22;7352;50.866;4.366;2023-06-22T00:13:45;23.90;99.90
14531;DHT22;7352;50.866;4.366;2023-06-22T00:16:13;24.00;99.90
14531;DHT22;7352;50.866;4.366;2023-06-22T00:18:41;24.00;99.90
14531;DHT22;7352;50.866;4.366;2023-06-22T00:21:12;24.10;99.90
14531;DHT22;7352;50.866;4.366;2023-06-22T00:23:39;24.10;99.90
14531;DHT22;7352;50.866;4.366;2023-06-22T00:26:06;23.90;99.90
14531;DHT22;7352;50.866;4.366;2023-06-22T00:28:35;23.90;99.90
14531;DHT22;7352;50.866;4.366;2023-06-22T00:31:01;23.90;99.90
14531;DHT22;7352;50.866;4.366;2023-06-22T00:33:28;23.80;99.90
14531;DHT22;7352;50.866;4.366;2023-06-22T00:35:55;23.70;99.90
14531;DHT22;7352;50.866;4.366;2023-06-22T00:38:22;23.90;99.90
14531;DHT22;7352;50.866;4.366;2023-06-22T00:40:49;23.80;99.90
14531;DHT22;7352;50.866;4.366;2023-06-22T00:43:15;23.80;99.90
14531;DHT22;7352;50.866;4.366;2023-06-22T00:45:44;23.70;99.90
14531;DHT22;7352;50.866;4.366;2023-06-22T00:48:11;23.60;99.90
14531;DHT22;7352;50.866;4.366;2023-06-22T00:50:39;23.50;99.90
14531;DHT22;7352;50.866;4.366;2023-06-22T00:53:06;23.40;99.90
14531;DHT22;7352;50.866;4.366;2023-06-22T00:55:35;23.60;99.90
14531;DHT22;7352;50.866;4.366;2023-06-22T00:58:04;23.60;99.90
14531;DHT22;7352;50.866;4.366;2023-06-22T01:00:35;23.50;99.90
14531;DHT22;7352;50.866;4.366;2023-06-22T01:03:04;23.50;99.90
14531;DHT22;7352;50.866;4.366;2023-06-22T01:05:35;23.60;99.90
14531;DHT22;7352;50.866;4.366;2023-06-22T01:08:07;23.70;99.90
14531;DHT22;7352;50.866;4.366;2023-06-22T01:10:36;23.60;99.90
14531;DHT22;7352;50.866;4.366;2023-06-22T01:13:07;23.70;99.90
14531;DHT22;7352;50.866;4.366;2023-06-22T01:15:45;23.70;99.90
14531;DHT22;7352;50.866;4.366;2023-06-22T01:18:16;23.60;99.90
14531;DHT22;7352;50.866;4.366;2023-06-22T01:20:43;23.60;99.90
14531;DHT22;7352;50.866;4.366;2023-06-22T01:23:17;23.50;99.90
14531;DHT22;7352;50.866;4.366;2023-06-22T01:25:47;23.50;99.90
14531;DHT22;7352;50.866;4.366;2023-06-22T01:28:20;23.50;99.90
14531;DHT22;7352;50.866;4.366;2023-06-22T01:30:51;23.60;99.90
14531;DHT22;7352;50.866;4.366;2023-06-22T01:33:29;23.70;99.90
14531;DHT22;7352;50.866;4.366;2023-06-22T01:35:56;23.60;99.90
14531;DHT22;7352;50.866;4.366;2023-06-22T01:38:23;23.50;99.90
14531;DHT22;7352;50.866;4.366;2023-06-22T01:40:50;23.50;99.90
14531;DHT22;7352;50.866;4.366;2023-06-22T01:43:17;23.50;99.90
14531;DHT22;7352;50.866;4.366;2023-06-22T01:45:44;23.40;99.90
14531;DHT22;7352;50.866;4.366;2023-06-22T01:48:13;23.40;99.90
14531;DHT22;7352;50.866;4.366;2023-06-22T01:50:57;23.40;99.90
14531;DHT22;7352;50.866;4.366;2023-06-22T01:59:20;23.20;99.90
14531;DHT22;7352;50.866;4.366;2023-06-22T02:01:54;23.40;99.90
14531;DHT22;7352;50.866;4.366;2023-06-22T02:04:26;23.50;99.90
14531;DHT22;7352;50.866;4.366;2023-06-22T02:06:54;23.50;99.90
14531;DHT22;7352;50.866;4.366;2023-06-22T02:09:24;23.30;99.90
14531;DHT22;7352;50.866;4.366;2023-06-22T02:11:53;23.20;99.90
14531;DHT22;7352;50.866;4.366;2023-06-22T02:14:21;23.10;99.90
14531;DHT22;7352;50.866;4.366;2023-06-22T02:16:48;23.00;99.90
14531;DHT22;7352;50.866;4.366;2023-06-22T02:19:16;22.90;99.90
14531;DHT22;7352;50.866;4.366;2023-06-22T02:21:45;22.90;99.90
14531;DHT22;7352;50.866;4.366;2023-06-22T02:24:12;23.00;99.90
14531;DHT22;7352;50.866;4.366;2023-06-22T02:26:38;22.80;99.90
14531;DHT22;7352;50.866;4.366;2023-06-22T02:29:07;22.90;99.90
14531;DHT22;7352;50.866;4.366;2023-06-22T02:31:34;22.80;99.90
14531;DHT22;7352;50.866;4.366;2023-06-22T02:34:01;22.80;99.90
14531;DHT22;7352;50.866;4.366;2023-06-22T02:36:28;22.60;99.90
14531;DHT22;7352;50.866;4.366;2023-06-22T02:38:58;22.80;99.90
14531;DHT22;7352;50.866;4.366;2023-06-22T02:41:26;22.80;99.90
14531;DHT22;7352;50.866;4.366;2023-06-22T02:43:53;22.70;99.90
14531;DHT22;7352;50.866;4.366;2023-06-22T02:46:20;22.80;99.90
14531;DHT22;7352;50.866;4.366;2023-06-22T02:48:47;22.70;99.90
14531;DHT22;7352;50.866;4.366;2023-06-22T02:51:14;22.50;99.90
14531;DHT22;7352;50.866;4.366;2023-06-22T02:53:41;22.40;99.90
14531;DHT22;7352;50.866;4.366;2023-06-22T02:56:13;22.50;99.90
14531;DHT22;7352;50.866;4.366;2023-06-22T02:58:41;22.40;99.90
14531;DHT22;7352;50.866;4.366;2023-06-22T03:01:08;22.40;99.90
14531;DHT22;7352;50.866;4.366;2023-06-22T03:03:35;22.40;99.90
14531;DHT22;7352;50.866;4.366;2023-06-22T03:06:03;22.30;99.90
14531;DHT22;7352;50.866;4.366;2023-06-22T03:08:29;22.50;99.90
14531;DHT22;7352;50.866;4.366;2023-06-22T03:10:56;22.60;99.90
14531;DHT22;7352;50.866;4.366;2023-06-22T03:13:24;22.40;99.90
14531;DHT22;7352;50.866;4.366;2023-06-22T03:15:51;22.40;99.90
14531;DHT22;7352;50.866;4.366;2023-06-22T03:18:18;22.20;99.90
14531;DHT22;7352;50.866;4.366;2023-06-22T03:20:45;22.20;99.90
14531;DHT22;7352;50.866;4.366;2023-06-22T03:23:11;22.10;99.90
14531;DHT22;7352;50.866;4.366;2023-06-22T03:25:38;22.20;99.90
14531;DHT22;7352;50.866;4.366;2023-06-22T03:28:05;22.40;99.90
14531;DHT22;7352;50.866;4.366;2023-06-22T03:30:33;22.40;99.90
14531;DHT22;7352;50.866;4.366;2023-06-22T03:33:00;22.30;99.90
14531;DHT22;7352;50.866;4.366;2023-06-22T03:35:27;22.30;99.90
14531;DHT22;7352;50.866;4.366;2023-06-22T03:37:53;22.20;99.90
14531;DHT22;7352;50.866;4.366;2023-06-22T03:40:21;22.10;99.90
14531;DHT22;7352;50.866;4.366;2023-06-22T03:42:48;22.10;99.90
14531;DHT22;7352;50.866;4.366;2023-06-22T03:45:16;22.20;99.90
14531;DHT22;7352;50.866;4.366;2023-06-22T03:47:45;22.10;99.90
14531;DHT22;7352;50.866;4.366;2023-06-22T03:50:12;22.10;99.90
14531;DHT22;7352;50.866;4.366;2023-06-22T03:52:39;22.30;99.90
14531;DHT22;7352;50.866;4.366;2023-06-22T03:55:06;22.10;99.90
14531;DHT22;7352;50.866;4.366;2023-06-22T03:57:33;22.10;99.90
14531;DHT22;7352;50.866;4.366;2023-06-22T04:00:00;22.10;99.90
14531;DHT22;7352;50.866;4.366;2023-06-22T04:02:28;22.40;99.90
14531;DHT22;7352;50.866;4.366;2023-06-22T04:04:56;22.40;99.90
14531;DHT22;7352;50.866;4.366;2023-06-22T04:07:23;22.40;99.90
14531;DHT22;7352;50.866;4.366;2023-06-22T04:09:49;22.20;99.90
14531;DHT22;7352;50.866;4.366;2023-06-22T04:12:16;22.20;99.90
14531;DHT22;7352;50.866;4.366;2023-06-22T04:14:43;22.20;99.90
14531;DHT22;7352;50.866;4.366;2023-06-22T04:17:10;22.20;99.90
14531;DHT22;7352;50.866;4.366;2023-06-22T04:19:39;22.40;99.90
14531;DHT22;7352;50.866;4.366;2023-06-22T04:22:08;22.50;99.90
14531;DHT22;7352;50.866;4.366;2023-06-22T04:24:35;22.50;99.90
14531;DHT22;7352;50.866;4.366;2023-06-22T04:27:02;22.50;99.90
14531;DHT22;7352;50.866;4.366;2023-06-22T04:29:29;22.50;99.90
14531;DHT22;7352;50.866;4.366;2023-06-22T04:31:56;22.50;99.90
14531;DHT22;7352;50.866;4.366;2023-06-22T04:34:28;22.50;99.90
14531;DHT22;7352;50.866;4.366;2023-06-22T04:36:55;22.70;99.90
14531;DHT22;7352;50.866;4.366;2023-06-22T04:39:23;22.50;99.90
14531;DHT22;7352;50.866;4.366;2023-06-22T04:41:52;22.60;99.90
14531;DHT22;7352;50.866;4.366;2023-06-22T04:44:26;22.80;99.90
14531;DHT22;7352;50.866;4.366;2023-06-22T04:46:53;22.80;99.90
14531;DHT22;7352;50.866;4.366;2023-06-22T04:49:25;22.90;99.90
14531;DHT22;7352;50.866;4.366;2023-06-22T04:51:58;22.90;99.90
14531;DHT22;7352;50.866;4.366;2023-06-22T04:54:27;22.80;99.90
14531;DHT22;7352;50.866;4.366;2023-06-22T04:56:54;22.90;99.90
14531;DHT22;7352;50.866;4.366;2023-06-22T04:59:23;22.80;99.90
14531;DHT22;7352;50.866;4.366;2023-06-22T05:01:54;22.80;99.90
14531;DHT22;7352;50.866;4.366;2023-06-22T05:04:21;22.90;99.90
14531;DHT22;7352;50.866;4.366;2023-06-22T05:06:48;22.90;99.90
14531;DHT22;7352;50.866;4.366;2023-06-22T05:09:15;23.10;99.90
14531;DHT22;7352;50.866;4.366;2023-06-22T05:11:44;23.00;99.90
14531;DHT22;7352;50.866;4.366;2023-06-22T05:14:11;23.10;99.90
14531;DHT22;7352;50.866;4.366;2023-06-22T05:16:38;23.10;99.90
14531;DHT22;7352;50.866;4.366;2023-06-22T05:19:05;23.20;99.90
14531;DHT22;7352;50.866;4.366;2023-06-22T05:21:31;23.20;99.90
14531;DHT22;7352;50.866;4.366;2023-06-22T05:23:58;23.20;99.90
14531;DHT22;7352;50.866;4.366;2023-06-22T05:26:28;23.30;99.90
14531;DHT22;7352;50.866;4.366;2023-06-22T05:28:56;23.30;99.90
14531;DHT22;7352;50.866;4.366;2023-06-22T05:31:23;23.30;99.90
14531;DHT22;7352;50.866;4.366;2023-06-22T05:33:51;23.30;99.90
14531;DHT22;7352;50.866;4.366;2023-06-22T05:36:18;23.20;99.90
14531;DHT22;7352;50.866;4.366;2023-06-22T05:38:46;23.20;99.90
14531;DHT22;7352;50.866;4.366;2023-06-22T05:41:13;23.20;99.90
14531;DHT22;7352;50.866;4.366;2023-06-22T05:43:40;23.10;99.90
14531;DHT22;7352;50.866;4.366;2023-06-22T05:46:08;23.10;99.90
14531;DHT22;7352;50.866;4.366;2023-06-22T05:48:35;23.10;99.90
14531;DHT22;7352;50.866;4.366;2023-06-22T05:51:02;23.10;99.90
14531;DHT22;7352;50.866;4.366;2023-06-22T05:53:29;23.20;99.90
14531;DHT22;7352;50.866;4.366;2023-06-22T05:55:56;23.10;99.90
14531;DHT22;7352;50.866;4.366;2023-06-22T05:58:23;22.90;99.90
14531;DHT22;7352;50.866;4.366;2023-06-22T06:00:50;22.70;99.90
14531;DHT22;7352;50.866;4.366;2023-06-22T06:03:18;22.70;99.90
14531;DHT22;7352;50.866;4.366;2023-06-22T06:05:45;22.60;99.90
14531;DHT22;7352;50.866;4.366;2023-06-22T06:08:12;22.70;99.90
14531;DHT22;7352;50.866;4.366;2023-06-22T06:10:41;22.60;99.90
14531;DHT22;7352;50.866;4.366;2023-06-22T06:13:26;22.60;99.90
14531;DHT22;7352;50.866;4.366;2023-06-22T06:15:55;22.40;99.90
14531;DHT22;7352;50.866;4.366;2023-06-22T06:18:37;22.30;99.90
14531;DHT22;7352;50.866;4.366;2023-06-22T06:21:04;22.30;99.90
14531;DHT22;7352;50.866;4.366;2023-06-22T06:23:31;22.00;99.90
14531;DHT22;7352;50.866;4.366;2023-06-22T06:25:57;22.10;99.90
14531;DHT22;7352;50.866;4.366;2023-06-22T06:28:24;22.20;99.90
14531;DHT22;7352;50.866;4.366;2023-06-22T06:30:51;22.10;99.90
14531;DHT22;7352;50.866;4.366;2023-06-22T06:33:18;22.20;99.90
14531;DHT22;7352;50.866;4.366;2023-06-22T06:35:47;22.30;99.90
14531;DHT22;7352;50.866;4.366;2023-06-22T06:38:14;22.30;99.90
14531;DHT22;7352;50.866;4.366;2023-06-22T06:40:41;22.50;99.90
14531;DHT22;7352;50.866;4.366;2023-06-22T06:43:08;22.60;99.90
14531;DHT22;7352;50.866;4.366;2023-06-22T06:45:35;22.70;99.90
14531;DHT22;7352;50.866;4.366;2023-06-22T06:48:01;22.80;99.90
14531;DHT22;7352;50.866;4.366;2023-06-22T06:50:28;22.90;99.90
14531;DHT22;7352;50.866;4.366;2023-06-22T06:52:56;23.00;99.90
14531;DHT22;7352;50.866;4.366;2023-06-22T06:55:24;23.10;99.90
14531;DHT22;7352;50.866;4.366;2023-06-22T06:57:51;23.20;99.90
14531;DHT22;7352;50.866;4.366;2023-06-22T07:00:18;23.20;99.90
14531;DHT22;7352;50.866;4.366;2023-06-22T07:05:14;23.20;99.90
14531;DHT22;7352;50.866;4.366;2023-06-22T07:07:41;23.40;99.90
14531;DHT22;7352;50.866;4.366;2023-06-22T07:10:10;23.40;99.90
14531;DHT22;7352;50.866;4.366;2023-06-22T07:12:36;23.60;99.90
14531;DHT22;7352;50.866;4.366;2023-06-22T07:15:04;23.50;99.90
14531;DHT22;7352;50.866;4.366;2023-06-22T07:17:32;23.50;99.90
14531;DHT22;7352;50.866;4.366;2023-06-22T07:19:58;23.70;99.90
14531;DHT22;7352;50.866;4.366;2023-06-22T07:22:27;23.70;99.90
14531;DHT22;7352;50.866;4.366;2023-06-22T07:24:54;23.70;99.90
14531;DHT22;7352;50.866;4.366;2023-06-22T07:27:23;23.90;99.90
14531;DHT22;7352;50.866;4.366;2023-06-22T07:29:50;23.80;99.90
14531;DHT22;7352;50.866;4.366;2023-06-22T07:32:17;23.70;99.90
14531;DHT22;7352;50.866;4.366;2023-06-22T07:34:45;23.70;99.90
14531;DHT22;7352;50.866;4.366;2023-06-22T07:37:12;23.90;99.90
14531;DHT22;7352;50.866;4.366;2023-06-22T07:39:39;23.90;99.90
14531;DHT22;7352;50.866;4.366;2023-06-22T07:42:07;23.70;99.90
14531;DHT22;7352;50.866;4.366;2023-06-22T07:44:36;23.70;99.90
14531;DHT22;7352;50.866;4.366;2023-06-22T07:47:03;23.80;99.90
14531;DHT22;7352;50.866;4.366;2023-06-22T07:49:30;23.80;99.90
14531;DHT22;7352;50.866;4.366;2023-06-22T07:51:56;23.90;99.90
14531;DHT22;7352;50.866;4.366;2023-06-22T07:54:23;24.10;99.90
14531;DHT22;7352;50.866;4.366;2023-06-22T07:56:50;24.00;99.90
14531;DHT22;7352;50.866;4.366;2023-06-22T07:59:18;24.10;99.90
14531;DHT22;7352;50.866;4.366;2023-06-22T08:01:47;24.10;99.90
14531;DHT22;7352;50.866;4.366;2023-06-22T08:04:15;24.10;99.90
14531;DHT22;7352;50.866;4.366;2023-06-22T08:06:42;24.30;99.90
14531;DHT22;7352;50.866;4.366;2023-06-22T08:09:09;24.30;99.90
14531;DHT22;7352;50.866;4.366;2023-06-22T08:11:36;24.20;99.90
14531;DHT22;7352;50.866;4.366;2023-06-22T08:14:02;24.20;99.90
14531;DHT22;7352;50.866;4.366;2023-06-22T08:16:30;24.20;99.90
14531;DHT22;7352;50.866;4.366;2023-06-22T08:18:59;24.20;99.90
14531;DHT22;7352;50.866;4.366;2023-06-22T08:21:27;24.20;99.90
14531;DHT22;7352;50.866;4.366;2023-06-22T08:23:54;24.00;99.90
14531;DHT22;7352;50.866;4.366;2023-06-22T08:26:27;23.90;99.90
14531;DHT22;7352;50.866;4.366;2023-06-22T08:28:55;23.90;99.90
14531;DHT22;7352;50.866;4.366;2023-06-22T08:31:22;23.90;99.90
14531;DHT22;7352;50.866;4.366;2023-06-22T08:33:50;23.80;99.90
14531;DHT22;7352;50.866;4.366;2023-06-22T08:36:21;23.70;99.90
14531;DHT22;7352;50.866;4.366;2023-06-22T08:38:50;23.80;99.90
14531;DHT22;7352;50.866;4.366;2023-06-22T08:41:17;23.80;99.90
14531;DHT22;7352;50.866;4.366;2023-06-22T08:43:47;23.70;99.90
14531;DHT22;7352;50.866;4.366;2023-06-22T08:46:14;23.70;99.90
14531;DHT22;7352;50.866;4.366;2023-06-22T08:48:45;23.70;99.90
14531;DHT22;7352;50.866;4.366;2023-06-22T08:51:13;23.70;99.90
14531;DHT22;7352;50.866;4.366;2023-06-22T08:53:41;23.70;99.90
14531;DHT22;7352;50.866;4.366;2023-06-22T08:56:08;23.60;99.90
14531;DHT22;7352;50.866;4.366;2023-06-22T08:58:35;23.40;99.90
14531;DHT22;7352;50.866;4.366;2023-06-22T09:01:01;23.70;99.90
14531;DHT22;7352;50.866;4.366;2023-06-22T09:03:29;23.70;99.90
14531;DHT22;7352;50.866;4.366;2023-06-22T09:05:58;23.60;99.90
14531;DHT22;7352;50.866;4.366;2023-06-22T09:08:24;23.50;99.90
14531;DHT22;7352;50.866;4.366;2023-06-22T09:10:52;23.40;99.90
14531;DHT22;7352;50.866;4.366;2023-06-22T09:13:21;23.50;99.90
14531;DHT22;7352;50.866;4.366;2023-06-22T09:15:49;23.50;99.90
14531;DHT22;7352;50.866;4.366;2023-06-22T09:18:17;23.50;99.90
14531;DHT22;7352;50.866;4.366;2023-06-22T09:20:44;23.50;99.90
14531;DHT22;7352;50.866;4.366;2023-06-22T09:23:11;23.50;99.90
14531;DHT22;7352;50.866;4.366;2023-06-22T09:25:39;23.50;99.90
14531;DHT22;7352;50.866;4.366;2023-06-22T09:28:08;23.40;99.90
14531;DHT22;7352;50.866;4.366;2023-06-22T09:30:35;23.40;99.90
14531;DHT22;7352;50.866;4.366;2023-06-22T09:33:01;23.20;99.90
14531;DHT22;7352;50.866;4.366;2023-06-22T09:35:28;23.10;99.90
14531;DHT22;7352;50.866;4.366;2023-06-22T09:37:55;22.80;99.90
14531;DHT22;7352;50.866;4.366;2023-06-22T09:40:21;22.70;99.90
14531;DHT22;7352;50.866;4.366;2023-06-22T09:42:49;22.80;99.90
14531;DHT22;7352;50.866;4.366;2023-06-22T09:45:17;22.50;99.90
14531;DHT22;7352;50.866;4.366;2023-06-22T09:47:44;22.50;99.90
14531;DHT22;7352;50.866;4.366;2023-06-22T09:50:11;22.40;99.90
14531;DHT22;7352;50.866;4.366;2023-06-22T09:52:38;22.30;99.90
14531;DHT22;7352;50.866;4.366;2023-06-22T09:55:12;22.60;99.90
14531;DHT22;7352;50.866;4.366;2023-06-22T09:57:40;22.30;99.90
14531;DHT22;7352;50.866;4.366;2023-06-22T10:00:09;22.10;99.90
14531;DHT22;7352;50.866;4.366;2023-06-22T10:02:40;21.90;99.90
14531;DHT22;7352;50.866;4.366;2023-06-22T10:05:07;22.20;99.90
14531;DHT22;7352;50.866;4.366;2023-06-22T10:07:34;21.70;99.90
14531;DHT22;7352;50.866;4.366;2023-06-22T10:10:05;20.60;99.90
14531;DHT22;7352;50.866;4.366;2023-06-22T10:12:32;20.30;99.90
14531;DHT22;7352;50.866;4.366;2023-06-22T10:14:59;19.90;99.90
14531;DHT22;7352;50.866;4.366;2023-06-22T10:17:26;19.70;99.90
14531;DHT22;7352;50.866;4.366;2023-06-22T10:19:54;19.40;99.90
14531;DHT22;7352;50.866;4.366;2023-06-22T10:22:21;19.30;99.90
14531;DHT22;7352;50.866;4.366;2023-06-22T10:24:47;19.20;99.90
14531;DHT22;7352;50.866;4.366;2023-06-22T10:27:17;19.10;99.90
14531;DHT22;7352;50.866;4.366;2023-06-22T10:29:45;18.90;99.90
14531;DHT22;7352;50.866;4.366;2023-06-22T10:32:12;18.90;99.90
14531;DHT22;7352;50.866;4.366;2023-06-22T10:34:39;19.00;99.90
14531;DHT22;7352;50.866;4.366;2023-06-22T10:37:08;18.80;99.90
14531;DHT22;7352;50.866;4.366;2023-06-22T10:39:34;18.80;99.90
14531;DHT22;7352;50.866;4.366;2023-06-22T10:42:02;18.80;99.90
14531;DHT22;7352;50.866;4.366;2023-06-22T10:44:29;18.70;99.90
14531;DHT22;7352;50.866;4.366;2023-06-22T10:46:56;18.80;99.90
14531;DHT22;7352;50.866;4.366;2023-06-22T10:49:23;18.80;99.90
14531;DHT22;7352;50.866;4.366;2023-06-22T10:51:52;18.90;99.90
14531;DHT22;7352;50.866;4.366;2023-06-22T10:54:20;18.80;99.90
14531;DHT22;7352;50.866;4.366;2023-06-22T10:56:47;19.00;99.90
14531;DHT22;7352;50.866;4.366;2023-06-22T10:59:13;18.80;99.90
14531;DHT22;7352;50.866;4.366;2023-06-22T11:01:40;18.80;99.90
14531;DHT22;7352;50.866;4.366;2023-06-22T11:04:07;18.90;99.90
14531;DHT22;7352;50.866;4.366;2023-06-22T11:06:34;18.90;99.90
14531;DHT22;7352;50.866;4.366;2023-06-22T11:09:01;19.00;99.90
14531;DHT22;7352;50.866;4.366;2023-06-22T11:11:31;19.20;99.90
14531;DHT22;7352;50.866;4.366;2023-06-22T11:13:59;19.30;99.90
14531;DHT22;7352;50.866;4.366;2023-06-22T11:16:27;19.20;99.90
14531;DHT22;7352;50.866;4.366;2023-06-22T11:18:54;19.20;99.90
14531;DHT22;7352;50.866;4.366;2023-06-22T11:21:21;19.40;99.90
14531;DHT22;7352;50.866;4.366;2023-06-22T11:23:49;19.60;99.90
14531;DHT22;7352;50.866;4.366;2023-06-22T11:26:16;19.60;99.90
14531;DHT22;7352;50.866;4.366;2023-06-22T11:28:44;19.60;99.90
14531;DHT22;7352;50.866;4.366;2023-06-22T11:31:11;19.40;99.90
14531;DHT22;7352;50.866;4.366;2023-06-22T11:33:38;19.20;99.90
14531;DHT22;7352;50.866;4.366;2023-06-22T11:36:06;18.90;99.90
14531;DHT22;7352;50.866;4.366;2023-06-22T11:38:33;19.00;99.90
14531;DHT22;7352;50.866;4.366;2023-06-22T11:41:01;18.80;99.90
14531;DHT22;7352;50.866;4.366;2023-06-22T11:43:29;18.90;99.90
14531;DHT22;7352;50.866;4.366;2023-06-22T11:45:59;18.90;99.90
14531;DHT22;7352;50.866;4.366;2023-06-22T11:48:28;19.00;99.90
14531;DHT22;7352;50.866;4.366;2023-06-22T11:50:55;19.10;99.90
14531;DHT22;7352;50.866;4.366;2023-06-22T11:53:23;19.10;99.90
14531;DHT22;7352;50.866;4.366;2023-06-22T11:55:56;19.00;99.90
14531;DHT22;7352;50.866;4.366;2023-06-22T11:58:23;18.90;99.90
14531;DHT22;7352;50.866;4.366;2023-06-22T12:00:50;18.90;99.90
14531;DHT22;7352;50.866;4.366;2023-06-22T12:03:20;18.90;99.90
14531;DHT22;7352;50.866;4.366;2023-06-22T12:05:47;19.10;99.90
14531;DHT22;7352;50.866;4.366;2023-06-22T12:08:14;19.30;99.90
14531;DHT22;7352;50.866;4.366;2023-06-22T12:10:41;19.30;99.90
14531;DHT22;7352;50.866;4.366;2023-06-22T12:13:08;19.20;99.90
14531;DHT22;7352;50.866;4.366;2023-06-22T12:15:35;19.00;99.90
14531;DHT22;7352;50.866;4.366;2023-06-22T12:18:04;19.10;99.90
14531;DHT22;7352;50.866;4.366;2023-06-22T12:20:32;19.10;99.90
14531;DHT22;7352;50.866;4.366;2023-06-22T12:23:01;19.10;99.90
14531;DHT22;7352;50.866;4.366;2023-06-22T12:25:30;18.90;99.90
14531;DHT22;7352;50.866;4.366;2023-06-22T12:27:58;18.80;99.90
14531;DHT22;7352;50.866;4.366;2023-06-22T12:30:24;18.80;99.90
14531;DHT22;7352;50.866;4.366;2023-06-22T12:32:53;18.70;99.90
14531;DHT22;7352;50.866;4.366;2023-06-22T12:35:22;18.80;99.90
14531;DHT22;7352;50.866;4.366;2023-06-22T12:37:50;18.90;99.90
14531;DHT22;7352;50.866;4.366;2023-06-22T12:40:18;19.00;99.90
14531;DHT22;7352;50.866;4.366;2023-06-22T12:42:45;19.00;99.90
14531;DHT22;7352;50.866;4.366;2023-06-22T12:45:14;18.90;99.90
14531;DHT22;7352;50.866;4.366;2023-06-22T12:47:46;19.00;99.90
14531;DHT22;7352;50.866;4.366;2023-06-22T12:50:18;19.00;99.90
14531;DHT22;7352;50.866;4.366;2023-06-22T12:52:45;19.10;99.90
14531;DHT22;7352;50.866;4.366;2023-06-22T12:55:15;19.20;99.90
14531;DHT22;7352;50.866;4.366;2023-06-22T12:57:44;19.30;99.90
14531;DHT22;7352;50.866;4.366;2023-06-22T13:00:11;19.40;99.90
14531;DHT22;7352;50.866;4.366;2023-06-22T13:02:38;19.40;99.90
14531;DHT22;7352;50.866;4.366;2023-06-22T13:05:22;19.40;99.90
14531;DHT22;7352;50.866;4.366;2023-06-22T13:07:48;19.40;99.90
14531;DHT22;7352;50.866;4.366;2023-06-22T13:10:16;19.50;99.90
14531;DHT22;7352;50.866;4.366;2023-06-22T13:12:43;19.40;99.90
14531;DHT22;7352;50.866;4.366;2023-06-22T13:15:10;19.50;99.90
14531;DHT22;7352;50.866;4.366;2023-06-22T13:17:37;19.50;99.90
14531;DHT22;7352;50.866;4.366;2023-06-22T13:20:05;19.40;99.90
14531;DHT22;7352;50.866;4.366;2023-06-22T13:22:34;19.20;99.90
14531;DHT22;7352;50.866;4.366;2023-06-22T13:25:05;19.20;99.90
14531;DHT22;7352;50.866;4.366;2023-06-22T13:27:32;19.20;99.90
14531;DHT22;7352;50.866;4.366;2023-06-22T13:29:59;19.20;99.90
14531;DHT22;7352;50.866;4.366;2023-06-22T13:32:28;19.20;99.90
14531;DHT22;7352;50.866;4.366;2023-06-22T13:34:56;19.30;99.90
14531;DHT22;7352;50.866;4.366;2023-06-22T13:37:25;19.20;99.90
14531;DHT22;7352;50.866;4.366;2023-06-22T13:39:53;19.00;99.90
14531;DHT22;7352;50.866;4.366;2023-06-22T13:42:21;19.10;99.90
14531;DHT22;7352;50.866;4.366;2023-06-22T13:44:49;18.90;99.90
14531;DHT22;7352;50.866;4.366;2023-06-22T13:47:23;19.00;99.90
14531;DHT22;7352;50.866;4.366;2023-06-22T13:49:51;18.90;99.90
14531;DHT22;7352;50.866;4.366;2023-06-22T13:52:18;18.80;99.90
14531;DHT22;7352;50.866;4.366;2023-06-22T13:54:45;18.80;99.90
14531;DHT22;7352;50.866;4.366;2023-06-22T13:57:13;18.70;99.90
14531;DHT22;7352;50.866;4.366;2023-06-22T13:59:40;18.60;99.90
14531;DHT22;7352;50.866;4.366;2023-06-22T14:02:09;18.60;99.90
14531;DHT22;7352;50.866;4.366;2023-06-22T14:04:36;18.60;99.90
14531;DHT22;7352;50.866;4.366;2023-06-22T14:07:03;18.60;99.90
14531;DHT22;7352;50.866;4.366;2023-06-22T14:09:30;18.40;99.90
14531;DHT22;7352;50.866;4.366;2023-06-22T14:11:57;18.50;99.90
14531;DHT22;7352;50.866;4.366;2023-06-22T14:14:25;18.40;99.90
14531;DHT22;7352;50.866;4.366;2023-06-22T14:16:52;18.40;99.90
14531;DHT22;7352;50.866;4.366;2023-06-22T14:19:19;18.50;99.90
14531;DHT22;7352;50.866;4.366;2023-06-22T14:21:47;18.40;99.90
14531;DHT22;7352;50.866;4.366;2023-06-22T14:24:17;18.50;99.90
14531;DHT22;7352;50.866;4.366;2023-06-22T14:26:44;18.50;99.90
14531;DHT22;7352;50.866;4.366;2023-06-22T14:29:10;18.60;99.90
14531;DHT22;7352;50.866;4.366;2023-06-22T14:31:45;18.50;99.90
14531;DHT22;7352;50.866;4.366;2023-06-22T14:34:13;18.40;99.90
14531;DHT22;7352;50.866;4.366;2023-06-22T14:36:40;18.30;99.90
14531;DHT22;7352;50.866;4.366;2023-06-22T14:39:15;18.40;99.90
14531;DHT22;7352;50.866;4.366;2023-06-22T14:41:43;18.40;99.90
14531;DHT22;7352;50.866;4.366;2023-06-22T14:44:09;18.30;99.90
14531;DHT22;7352;50.866;4.366;2023-06-22T14:46:38;18.30;99.90
14531;DHT22;7352;50.866;4.366;2023-06-22T14:49:07;18.20;99.90
14531;DHT22;7352;50.866;4.366;2023-06-22T14:51:34;18.40;99.90
14531;DHT22;7352;50.866;4.366;2023-06-22T14:54:01;18.40;99.90
14531;DHT22;7352;50.866;4.366;2023-06-22T14:56:31;18.50;99.90
14531;DHT22;7352;50.866;4.366;2023-06-22T14:59:04;18.50;99.90
14531;DHT22;7352;50.866;4.366;2023-06-22T15:01:31;18.60;99.90
14531;DHT22;7352;50.866;4.366;2023-06-22T15:03:57;18.30;99.90
14531;DHT22;7352;50.866;4.366;2023-06-22T15:06:30;18.30;99.90
14531;DHT22;7352;50.866;4.366;2023-06-22T15:08:58;18.50;99.90
14531;DHT22;7352;50.866;4.366;2023-06-22T15:11:26;18.50;99.90
14531;DHT22;7352;50.866;4.366;2023-06-22T15:13:53;18.50;99.90
14531;DHT22;7352;50.866;4.366;2023-06-22T15:16:21;18.50;99.90
14531;DHT22;7352;50.866;4.366;2023-06-22T15:18:49;18.40;99.90
14531;DHT22;7352;50.866;4.366;2023-06-22T15:21:16;18.70;99.90
14531;DHT22;7352;50.866;4.366;2023-06-22T15:23:45;18.70;99.90
14531;DHT22;7352;50.866;4.366;2023-06-22T15:26:12;18.50;99.90
14531;DHT22;7352;50.866;4.366;2023-06-22T15:28:39;18.70;99.90
14531;DHT22;7352;50.866;4.366;2023-06-22T15:31:08;18.70;99.90
14531;DHT22;7352;50.866;4.366;2023-06-22T15:33:41;18.80;99.90
14531;DHT22;7352;50.866;4.366;2023-06-22T15:36:14;19.00;99.90
14531;DHT22;7352;50.866;4.366;2023-06-22T15:38:41;19.00;99.90
14531;DHT22;7352;50.866;4.366;2023-06-22T15:41:09;19.10;99.90
14531;DHT22;7352;50.866;4.366;2023-06-22T15:43:36;19.10;99.90
14531;DHT22;7352;50.866;4.366;2023-06-22T15:46:03;19.10;99.90
14531;DHT22;7352;50.866;4.366;2023-06-22T15:48:30;19.10;99.90
14531;DHT22;7352;50.866;4.366;2023-06-22T15:51:00;19.10;99.90
14531;DHT22;7352;50.866;4.366;2023-06-22T15:53:28;19.20;99.90
14531;DHT22;7352;50.866;4.366;2023-06-22T15:55:55;19.30;99.90
14531;DHT22;7352;50.866;4.366;2023-06-22T15:58:24;19.20;99.90